KLUF/LUF METAR and TAF weather

Enter ICAO airport designator
Station Type Date Time Source
KLUF METAR 2022/06/26 07:58 UTC NOAA

KLUF 260758Z AUTO 04007KT 10SM OVC160 32/13 A2989 RMK AO2 SLP106 T03150132 $


Station Type Date Time Source
KLUF Decoded METAR 2022/06/26 07:58 UTC NOAA

Luke Air Force Base / Phoenix, AZ, United States (KLUF) 33-32N 112-23W 332M
Jun 26, 2022 - 03:58 AM EDT / 2022.06.26 0758 UTC
Wind: from the NE (040 degrees) at 8 MPH (7 KT):0
Visibility: 10 mile(s):0
Sky conditions: overcast
Temperature: 88.7 F (31.5 C)
Dew Point: 55.8 F (13.2 C)
Relative Humidity: 32%
Pressure (altimeter): 29.89 in. Hg (1012 hPa)
ob: KLUF 260758Z AUTO 04007KT 10SM OVC160 32/13 A2989 RMK AO2 SLP106 T03150132
cycle: 8

Station Type Date Time Source
KLUF TAF 2022/06/24 20:38 UTC NOAA

TAF COR KLUF 242023Z 2420/2602 24010KT 9999 FEW150 QNH2976INS
BECMG 2423/2424 33010G15KT 9999 SCT150 QNH2974INS
BECMG 2506/2507 VRB06KT 9999 SCT150 QNH2982INS
BECMG 2519/2520 23010G15KT 9999 FEW150 QNH2981INS
BECMG 2522/2523 VRB15G25KT 8000 -SHRA VCTS BKN120CB 520007 QNH2978INS TX41/2423Z TN29/2513Z LAST NO
AMDS AFT 2501 NEXT 2712

Example: see airport list